»·PEaware :: N587EF KVCV-KGCN

N587EF :: KVCV-KGCN

FLIGHT INFORMATION

Flight Status: Arrived
Operator: Privately registered:
United States
More flights under this callsign
Pilot: Eloy F. (29609)
Aircraft: BEECH AIRCRAFT DEBONAIR BONANZA
(BE33)
More flights by this aircraft type
Origin: KVCV Socal Logistics
United States
Destination: KGCN Grand Canyon Natl Park
United States
More flights between these airports :: More routes between these airports
Route: KVCV DAG GFS PGS KGCN
File this flight plan on PilotEdge
Remarks:
Altitude:
(Current/Filed)
9,500ft
Speed:
(Current/Filed)
150kts
Departed: 14-Aug-20 09:09 AM
Arrived: 14-Aug-20 10:50 AM
Distance/Time
Traveled:
269nm/1:41
Distance/Time
To Go:
Arrived

Flight Plot

Page will automatically refresh every two minutes.

Flight plan parsing failed; only flown route is shown


Map Options




Map Legend


Flown Route
Filed Route
Departure Airport
Arrival Airport
Navaid (VOR, NDB)
Fix

Horizontal Profiles

Position Reports

Time Latitude Longitude Heading Altitude Ground
Speed
14-Aug-20 08:39 34.588333 -117.376341 313 2874ft 0kts
14-Aug-20 08:40 34.588333 -117.376341 313 2874ft 0kts
14-Aug-20 08:41 34.588333 -117.376341 313 2874ft 0kts
14-Aug-20 08:42 34.588333 -117.376341 313 2874ft 0kts
14-Aug-20 08:43 34.588333 -117.376341 313 2874ft 0kts
14-Aug-20 08:44 34.588333 -117.376341 313 2874ft 0kts
14-Aug-20 08:45 34.588333 -117.376341 313 2874ft 0kts
14-Aug-20 08:46 34.588333 -117.376341 313 2874ft 0kts
14-Aug-20 08:47 34.588333 -117.376341 313 2874ft 0kts
14-Aug-20 08:48 34.588333 -117.376341 313 2874ft 0kts
14-Aug-20 08:49 34.588333 -117.376341 313 2874ft 0kts
14-Aug-20 08:50 34.588333 -117.376341 313 2874ft 0kts
14-Aug-20 08:51 34.588333 -117.376341 313 2874ft 0kts
14-Aug-20 08:52 34.588333 -117.376341 313 2874ft 0kts
14-Aug-20 08:53 34.588333 -117.376341 313 2874ft 0kts
14-Aug-20 08:54 34.588333 -117.376341 313 2874ft 0kts
14-Aug-20 08:55 34.588333 -117.376341 313 2874ft 0kts
14-Aug-20 08:56 34.588333 -117.376341 313 2874ft 0kts
14-Aug-20 08:57 34.588333 -117.376341 313 2874ft 0kts
14-Aug-20 08:58 34.588333 -117.376341 313 2874ft 0kts
14-Aug-20 08:59 34.588333 -117.376341 313 2874ft 0kts
14-Aug-20 09:00 34.588333 -117.376341 313 2874ft 0kts
14-Aug-20 09:01 34.588409 -117.376440 312 2874ft 3kts
14-Aug-20 09:02 34.589940 -117.376298 44 2870ft 12kts
14-Aug-20 09:03 34.593258 -117.372194 76 2865ft 21kts
14-Aug-20 09:04 34.595141 -117.367541 11 2859ft 20kts
14-Aug-20 09:05 34.599060 -117.366624 9 2851ft 0kts
14-Aug-20 09:06 34.599060 -117.366624 9 2851ft 0kts
14-Aug-20 09:07 34.599880 -117.366527 0 2850ft 12kts
14-Aug-20 09:08 34.588537 -117.381046 227 3198ft 101kts
14-Aug-20 09:09 34.572237 -117.370956 65 4150ft 98kts
14-Aug-20 09:10 34.595703 -117.345521 42 4836ft 112kts
14-Aug-20 09:11 34.620195 -117.321758 45 5581ft 113kts
14-Aug-20 09:12 34.639174 -117.291293 58 6267ft 113kts
14-Aug-20 09:13 34.655721 -117.258785 63 6987ft 114kts
14-Aug-20 09:14 34.671278 -117.225312 68 7750ft 114kts
14-Aug-20 09:15 34.686392 -117.191181 69 8497ft 116kts
14-Aug-20 09:16 34.701655 -117.156138 64 9202ft 119kts
14-Aug-20 09:17 34.719084 -117.118988 69 9500ft 143kts
14-Aug-20 09:18 34.738541 -117.071583 66 9440ft 163kts
14-Aug-20 09:19 34.759612 -117.021146 64 9420ft 176kts
14-Aug-20 09:20 34.784897 -116.969590 59 9423ft 177kts
14-Aug-20 09:21 34.810131 -116.917367 61 9377ft 179kts
14-Aug-20 09:22 34.833343 -116.864174 61 9379ft 177kts
14-Aug-20 09:23 34.857137 -116.811325 64 9342ft 178kts
14-Aug-20 09:24 34.878185 -116.757815 57 9416ft 173kts
14-Aug-20 09:25 34.903893 -116.707464 60 9418ft 176kts
14-Aug-20 09:26 34.927949 -116.655111 61 9419ft 177kts
14-Aug-20 09:27 34.951476 -116.602780 61 9495ft 177kts
14-Aug-20 09:28 34.966640 -116.546040 81 9498ft 179kts
14-Aug-20 09:29 34.974229 -116.485758 81 9502ft 180kts
14-Aug-20 09:30 34.981734 -116.425408 81 9507ft 180kts
14-Aug-20 09:31 34.989261 -116.365061 80 9513ft 180kts
14-Aug-20 09:32 34.996824 -116.304247 81 9515ft 180kts
14-Aug-20 09:33 35.004320 -116.243697 81 9518ft 180kts
14-Aug-20 09:34 35.011796 -116.183023 80 9520ft 181kts
14-Aug-20 09:35 35.019250 -116.122276 80 9521ft 181kts
14-Aug-20 09:36 35.026698 -116.061316 80 9520ft 181kts
14-Aug-20 09:37 35.034124 -116.000261 80 9519ft 182kts
14-Aug-20 09:38 35.041540 -115.939042 80 9519ft 182kts
14-Aug-20 09:39 35.048905 -115.877992 80 9521ft 182kts
14-Aug-20 09:40 35.056281 -115.816579 80 9526ft 182kts
14-Aug-20 09:41 35.063618 -115.755191 80 9530ft 183kts
14-Aug-20 09:42 35.070983 -115.693304 81 9535ft 184kts
14-Aug-20 09:43 35.078324 -115.631328 81 9516ft 185kts
14-Aug-20 09:44 35.085671 -115.569011 81 9485ft 186kts
14-Aug-20 09:45 35.093019 -115.506463 81 9459ft 186kts
14-Aug-20 09:46 35.100321 -115.444016 81 9437ft 185kts
14-Aug-20 09:47 35.107584 -115.381664 81 9425ft 185kts
14-Aug-20 09:48 35.114789 -115.319450 81 9409ft 184kts
14-Aug-20 09:49 35.121939 -115.257425 81 9393ft 184kts
14-Aug-20 09:50 35.129072 -115.195242 81 9373ft 184kts
14-Aug-20 09:51 35.143575 -115.135906 67 9372ft 182kts
14-Aug-20 09:52 35.161647 -115.078272 67 9372ft 181kts
14-Aug-20 09:53 35.179503 -115.020802 67 9372ft 180kts
14-Aug-20 09:54 35.197003 -114.964316 67 9515ft 173kts
14-Aug-20 09:55 35.214193 -114.908480 67 9519ft 177kts
14-Aug-20 09:56 35.231702 -114.851574 67 9519ft 178kts
14-Aug-20 09:57 35.249221 -114.794610 67 9519ft 179kts
14-Aug-20 09:58 35.266682 -114.737682 67 9519ft 179kts
14-Aug-20 09:59 35.286631 -114.681877 59 9520ft 178kts
14-Aug-20 10:00 35.311107 -114.628869 57 9519ft 178kts
14-Aug-20 10:01 35.322976 -114.570473 78 9519ft 180kts
14-Aug-20 10:02 35.336158 -114.511384 69 9519ft 179kts
14-Aug-20 10:03 35.353166 -114.453948 67 9535ft 178kts
14-Aug-20 10:04 35.370420 -114.397106 67 9587ft 177kts
14-Aug-20 10:05 35.387562 -114.340460 68 9638ft 176kts
14-Aug-20 10:07 35.404540 -114.284181 68 9686ft 175kts
14-Aug-20 10:08 35.421330 -114.228513 68 9737ft 174kts
14-Aug-20 10:09 35.438195 -114.172392 68 9738ft 175kts
14-Aug-20 10:10 35.455047 -114.116232 68 9738ft 175kts
14-Aug-20 10:11 35.471887 -114.059955 68 9738ft 176kts
14-Aug-20 10:12 35.488735 -114.003593 68 9738ft 176kts
14-Aug-20 10:13 35.505597 -113.947082 68 9738ft 176kts
14-Aug-20 10:14 35.522411 -113.890615 68 9739ft 176kts
14-Aug-20 10:15 35.539200 -113.834127 68 9739ft 176kts
14-Aug-20 10:16 35.555936 -113.777703 68 9739ft 176kts
14-Aug-20 10:17 35.572692 -113.721096 68 9739ft 176kts
14-Aug-20 10:18 35.589386 -113.664611 68 9739ft 176kts
14-Aug-20 10:19 35.606103 -113.607903 68 9739ft 176kts
14-Aug-20 10:20 35.622780 -113.551223 68 9739ft 176kts
14-Aug-20 10:21 35.637339 -113.493738 72 9739ft 176kts
14-Aug-20 10:22 35.651017 -113.435608 72 9739ft 176kts
14-Aug-20 10:22 35.662568 -113.387304 72 9739ft 176kts
14-Aug-20 10:24 35.678716 -113.319850 72 9738ft 176kts
14-Aug-20 10:25 35.692564 -113.261859 72 9748ft 175kts
14-Aug-20 10:26 35.706240 -113.204501 72 9807ft 174kts
14-Aug-20 10:26 35.717556 -113.156838 72 9907ft 171kts
14-Aug-20 10:27 35.731311 -113.098784 72 9857ft 175kts
14-Aug-20 10:28 35.744963 -113.041153 72 9916ft 175kts
14-Aug-20 10:30 35.760994 -112.973191 72 9925ft 177kts
14-Aug-20 10:30 35.772453 -112.924599 71 9923ft 177kts
14-Aug-20 10:31 35.786245 -112.865791 72 9810ft 182kts
14-Aug-20 10:32 35.800413 -112.805318 71 9607ft 184kts
14-Aug-20 10:33 35.814426 -112.745071 71 9365ft 178kts
14-Aug-20 10:34 35.827929 -112.687399 70 9042ft 173kts
14-Aug-20 10:35 35.841121 -112.630703 72 8747ft 171kts
14-Aug-20 10:36 35.854137 -112.574569 71 8318ft 168kts
14-Aug-20 10:37 35.866839 -112.520311 69 8063ft 165kts
14-Aug-20 10:38 35.879658 -112.464168 70 7953ft 170kts
14-Aug-20 10:39 35.891845 -112.411593 70 7791ft 150kts
14-Aug-20 10:40 35.903083 -112.363011 71 7693ft 150kts
14-Aug-20 10:41 35.914796 -112.311566 71 7609ft 158kts
14-Aug-20 10:42 35.926097 -112.262265 70 7588ft 127kts
14-Aug-20 10:43 35.933532 -112.223831 73 7660ft 109kts
14-Aug-20 10:44 35.942752 -112.188473 46 7506ft 101kts
14-Aug-20 10:45 35.961890 -112.162860 46 7482ft 100kts
14-Aug-20 10:46 35.981197 -112.138589 36 7530ft 111kts
14-Aug-20 10:47 35.974575 -112.123629 229 7151ft 109kts
14-Aug-20 10:48 35.955545 -112.143717 223 6604ft 64kts
14-Aug-20 10:49 35.951779 -112.146102 118 6592ft 0kts
14-Aug-20 10:50 35.953037 -112.144537 40 6599ft 28kts
14-Aug-20 10:51 35.956127 -112.140848 33 6613ft 0kts

Navigation Log

Ident Type
Flight plan parsing failed, navigation log unavailable